CheckWX is a tool to help pilots better visualize weather data.  It is not intended as a substitute for an official pre-flight weather briefing.

14:22:02 UTC

KTIX METAR
Space Coast Regional Airport
Titusville, Florida, USA
Current

35 mins ago

KTIX 221347Z 32004KT 7SM CLR 22/08 A3020
Observed
Apr-22 @ 13:47 UTC
Wind
  • 320° at 4 KTS
Visibility
7 SM
Flight Rules
VFR
Cloud Levels
  • Clear skies
Temperature
22°C / 72°F
Dewpoint
C / 46°F
Humidity
41%
Altimeter
30.2" Hg
Pressure
1022.72 hPa
Previous

2 hours ago

KTIX 221247Z 18004KT 7SM CLR 19/10 A3020
Observed
Apr-22 @ 12:47 UTC
Wind
  • 180° at 4 KTS
Visibility
7 SM
Flight Rules
VFR
Cloud Levels
  • Clear skies
Temperature
19°C / 66°F
Dewpoint
10°C / 50°F
Humidity
56%
Altimeter
30.2" Hg
Pressure
1022.72 hPa
Previous

3 hours ago

KTIX 221147Z 18004KT 7SM CLR 14/13 A3020
Observed
Apr-22 @ 11:47 UTC
Wind
  • 180° at 4 KTS
Visibility
7 SM
Flight Rules
VFR
Cloud Levels
  • Clear skies
Temperature
14°C / 57°F
Dewpoint
13°C / 55°F
Humidity
94%
Altimeter
30.2" Hg
Pressure
1022.72 hPa